| time (UTC) | temp C | wind direction | speed KPH | gust KPH | rain 1hr cm | rain 24hr cm | rain mn cm | humidity % | barometer mb |
| 20260510204438 | 26 | 262 | 14.5 | 20.9 | 0.00 | 0.00 | 0.00 | 22 | 1025.4 |
| 20260510203933 | 26 | 32 | 1.6 | 8.0 | 0.00 | 0.00 | 0.00 | 23 | 1025.5 |
| 20260510203432 | 26 | 36 | 0.0 | 0.0 | 0.00 | 0.00 | 0.00 | 23 | 1025.9 |
| 20260510202926 | 26 | 248 | 3.2 | 11.3 | 0.00 | 0.00 | 0.00 | 15 | 1025.5 |
| 20260510202422 | 26 | 225 | 4.8 | 14.5 | 0.00 | 0.00 | 0.00 | 15 | 1025.8 |
| 20260510201919 | 26 | 319 | 0.0 | 0.0 | 0.00 | 0.00 | 0.00 | 15 | 1025.8 |
| 20260510201416 | 26 | 289 | 1.6 | 4.8 | 0.00 | 0.00 | 0.00 | 14 | 1026.0 |
| 20260510200912 | 26 | 233 | 1.6 | 3.2 | 0.00 | 0.00 | 0.00 | 15 | 1025.9 |
| 20260510200406 | 25 | 320 | 0.0 | 0.0 | 0.00 | 0.00 | 0.00 | 17 | 1025.8 |
| 20260510195901 | 26 | 263 | 11.3 | 14.5 | 0.00 | 0.00 | 0.00 | 16 | 1025.7 |
| 20260510195358 | 26 | 291 | 0.0 | 1.6 | 0.00 | 0.00 | 0.00 | 16 | 1025.8 |
| 20260510194852 | 26 | 333 | 0.0 | 0.0 | 0.00 | 0.00 | 0.00 | 16 | 1025.9 |
| 20260510194349 | 26 | 287 | 0.0 | 0.0 | 0.00 | 0.00 | 0.00 | 16 | 1025.8 |
| 20260510193845 | 26 | 270 | 6.4 | 8.0 | 0.00 | 0.00 | 0.00 | 17 | 1026.0 |
| 20260510193340 | 26 | 278 | 0.0 | 0.0 | 0.00 | 0.00 | 0.00 | 16 | 1026.0 |
| 20260510192836 | 26 | 215 | 0.0 | 1.6 | 0.00 | 0.00 | 0.00 | 17 | 1025.9 |
| 20260510192331 | 25 | 232 | 0.0 | 0.0 | 0.00 | 0.00 | 0.00 | 17 | 1025.7 |
| 20260510191828 | 25 | 218 | 0.0 | 0.0 | 0.00 | 0.00 | 0.00 | 18 | 1025.9 |
| 20260510191324 | 25 | 332 | 0.0 | 1.6 | 0.00 | 0.00 | 0.00 | 18 | 1026.1 |
| 20260510190822 | 23 | 260 | 0.0 | 0.0 | 0.00 | 0.00 | 0.00 | 19 | 1026.3 |
| 20260510190319 | 23 | 262 | 0.0 | 0.0 | 0.00 | 0.00 | 0.00 | 20 | 1026.4 |
| 20260510185814 | 22 | 315 | 0.0 | 0.0 | 0.00 | 0.00 | 0.00 | 21 | 1026.1 |
| 20260510185313 | 22 | 264 | 0.0 | 1.6 | 0.00 | 0.00 | 0.00 | 21 | 1026.1 |
| 20260510184810 | 22 | 269 | 3.2 | 11.3 | 0.00 | 0.00 | 0.00 | 21 | 1026.4 |
| 20260510184306 | 23 | 300 | 3.2 | 9.7 | 0.00 | 0.00 | 0.00 | 21 | 1026.1 |
| 20260510183801 | 22 | 303 | 0.0 | 0.0 | 0.00 | 0.00 | 0.00 | 21 | 1026.3 |
| 20260510183256 | 22 | 301 | 0.0 | 1.6 | 0.00 | 0.00 | 0.00 | 21 | 1026.4 |
| 20260510182753 | 22 | 293 | 1.6 | 4.8 | 0.00 | 0.00 | 0.00 | 21 | 1026.4 |
| 20260510182249 | 23 | 321 | 0.0 | 1.6 | 0.00 | 0.00 | 0.00 | 19 | 1026.3 |
| 20260510181746 | 23 | 307 | 0.0 | 0.0 | 0.00 | 0.00 | 0.00 | 19 | 1026.0 |
| 20260510181243 | 23 | 69 | 0.0 | 0.0 | 0.00 | 0.00 | 0.00 | 19 | 1025.8 |
| 20260510180739 | 23 | 38 | 0.0 | 0.0 | 0.00 | 0.00 | 0.00 | 19 | 1025.9 |
| 20260510180236 | 23 | 21 | 1.6 | 3.2 | 0.00 | 0.00 | 0.00 | 19 | 1025.9 |
| 20260510175733 | 23 | 15 | 0.0 | 0.0 | 0.00 | 0.00 | 0.00 | 19 | 1026.0 |
| 20260510175228 | 23 | 294 | 0.0 | 0.0 | 0.00 | 0.00 | 0.00 | 20 | 1026.1 |
| 20260510174726 | 23 | 37 | 0.0 | 0.0 | 0.00 | 0.00 | 0.00 | 19 | 1025.9 |
| 20260510174223 | 23 | 15 | 0.0 | 1.6 | 0.00 | 0.00 | 0.00 | 19 | 1026.1 |
| 20260510173719 | 23 | 344 | 0.0 | 0.0 | 0.00 | 0.00 | 0.00 | 19 | 1026.0 |
| 20260510173214 | 23 | 340 | 0.0 | 0.0 | 0.00 | 0.00 | 0.00 | 19 | 1026.1 |
| 20260510172704 | 22 | 313 | 1.6 | 8.0 | 0.00 | 0.00 | 0.00 | 19 | 1025.9 |
| 20260510172201 | 23 | 282 | 0.0 | 0.0 | 0.00 | 0.00 | 0.00 | 18 | 1026.0 |
| 20260510171658 | 23 | 81 | 0.0 | 0.0 | 0.00 | 0.00 | 0.00 | 22 | 1026.0 |
| 20260510171155 | 23 | 90 | 0.0 | 0.0 | 0.00 | 0.00 | 0.00 | 22 | 1026.0 |
| 20260510170652 | 22 | 99 | 0.0 | 0.0 | 0.00 | 0.00 | 0.00 | 22 | 1026.0 |
| 20260510170148 | 22 | 100 | 0.0 | 0.0 | 0.00 | 0.00 | 0.00 | 23 | 1025.8 |
| 20260510165644 | 22 | 99 | 0.0 | 0.0 | 0.00 | 0.00 | 0.00 | 23 | 1026.0 |
| 20260510165140 | 22 | 47 | 0.0 | 0.0 | 0.00 | 0.00 | 0.00 | 22 | 1025.9 |
| 20260510164638 | 22 | 105 | 1.6 | 4.8 | 0.00 | 0.00 | 0.00 | 22 | 1025.8 |
| 20260510164135 | 23 | 77 | 0.0 | 1.6 | 0.00 | 0.00 | 0.00 | 23 | 1025.8 |
| 20260510163630 | 23 | 87 | 4.8 | 11.3 | 0.00 | 0.00 | 0.00 | 24 | 1025.9 |
| 20260510163125 | 21 | 65 | 1.6 | 4.8 | 0.00 | 0.00 | 0.00 | 26 | 1025.7 |
| 20260510162620 | 20 | 106 | 9.7 | 16.1 | 0.00 | 0.00 | 0.00 | 29 | 1025.9 |
| 20260510162117 | 20 | 68 | 3.2 | 8.0 | 0.00 | 0.00 | 0.00 | 29 | 1025.9 |
| 20260510161612 | 20 | 92 | 4.8 | 8.0 | 0.00 | 0.00 | 0.00 | 28 | 1025.7 |
| 20260510161110 | 20 | 118 | 4.8 | 9.7 | 0.00 | 0.00 | 0.00 | 29 | 1025.8 |
| 20260510160607 | 20 | 83 | 6.4 | 17.7 | 0.00 | 0.00 | 0.00 | 29 | 1025.8 |
| 20260510160106 | 20 | 65 | 9.7 | 17.7 | 0.00 | 0.00 | 0.00 | 29 | 1025.7 |
| 20260510155603 | 21 | 73 | 6.4 | 11.3 | 0.00 | 0.00 | 0.00 | 28 | 1025.5 |
| 20260510155059 | 21 | 100 | 11.3 | 17.7 | 0.00 | 0.00 | 0.00 | 27 | 1025.4 |
| 20260510154555 | 22 | 55 | 16.1 | 25.7 | 0.00 | 0.00 | 0.00 | 27 | 1024.9 |
| 20260510154050 | 22 | 43 | 6.4 | 9.7 | 0.00 | 0.00 | 0.00 | 25 | 1025.3 |
| 20260510153545 | 21 | 70 | 14.5 | 22.5 | 0.00 | 0.00 | 0.00 | 27 | 1025.2 |
| 20260510153042 | 21 | 68 | 4.8 | 11.3 | 0.00 | 0.00 | 0.00 | 26 | 1024.8 |
| 20260510152539 | 21 | 86 | 4.8 | 11.3 | 0.00 | 0.00 | 0.00 | 25 | 1025.2 |
| 20260510152035 | 21 | 95 | 6.4 | 14.5 | 0.00 | 0.00 | 0.00 | 25 | 1025.2 |
| 20260510151532 | 21 | 77 | 12.9 | 20.9 | 0.00 | 0.00 | 0.00 | 26 | 1025.3 |
| 20260510151030 | 21 | 34 | 20.9 | 32.2 | 0.00 | 0.00 | 0.00 | 26 | 1025.1 |
| 20260510150525 | 20 | 25 | 17.7 | 27.4 | 0.00 | 0.00 | 0.00 | 26 | 1025.4 |
| 20260510150021 | 21 | 48 | 9.7 | 16.1 | 0.00 | 0.00 | 0.00 | 25 | 1025.4 |
| 20260510145518 | 21 | 73 | 6.4 | 12.9 | 0.00 | 0.00 | 0.00 | 25 | 1025.2 |
| 20260510145014 | 21 | 69 | 3.2 | 8.0 | 0.00 | 0.00 | 0.00 | 25 | 1024.7 |
| 20260510144511 | 21 | 73 | 9.7 | 20.9 | 0.00 | 0.00 | 0.00 | 25 | 1024.8 |
| 20260510144008 | 21 | 21 | 1.6 | 4.8 | 0.00 | 0.00 | 0.00 | 24 | 1024.7 |
| 20260510143503 | 20 | 92 | 6.4 | 9.7 | 0.00 | 0.00 | 0.00 | 25 | 1024.7 |
| 20260510143000 | 20 | 45 | 8.0 | 12.9 | 0.00 | 0.00 | 0.00 | 25 | 1024.7 |
| 20260510142456 | 20 | 31 | 3.2 | 9.7 | 0.00 | 0.00 | 0.00 | 25 | 1024.7 |
| 20260510141953 | 20 | 110 | 4.8 | 11.3 | 0.00 | 0.00 | 0.00 | 26 | 1024.6 |
| 20260510141450 | 19 | 55 | 1.6 | 4.8 | 0.00 | 0.00 | 0.00 | 26 | 1024.5 |
| 20260510140947 | 19 | 58 | 19.3 | 25.7 | 0.00 | 0.00 | 0.00 | 26 | 1024.5 |
| 20260510140443 | 19 | 74 | 1.6 | 8.0 | 0.00 | 0.00 | 0.00 | 25 | 1024.3 |
| 20260510135942 | 19 | 63 | 1.6 | 3.2 | 0.00 | 0.00 | 0.00 | 25 | 1024.1 |
| 20260510135438 | 18 | 87 | 4.8 | 9.7 | 0.00 | 0.00 | 0.00 | 25 | 1024.1 |
| 20260510134935 | 18 | 57 | 6.4 | 11.3 | 0.00 | 0.00 | 0.00 | 26 | 1024.0 |
| 20260510134432 | 18 | 83 | 1.6 | 3.2 | 0.00 | 0.00 | 0.00 | 25 | 1023.9 |
| 20260510133929 | 18 | 75 | 1.6 | 4.8 | 0.00 | 0.00 | 0.00 | 25 | 1024.1 |
| 20260510133425 | 18 | 70 | 3.2 | 8.0 | 0.00 | 0.00 | 0.00 | 25 | 1024.2 |
| 20260510132920 | 18 | 76 | 11.3 | 20.9 | 0.00 | 0.00 | 0.00 | 24 | 1024.0 |
| 20260510132418 | 19 | 81 | 1.6 | 3.2 | 0.00 | 0.00 | 0.00 | 22 | 1024.1 |
| 20260510131915 | 19 | 82 | 8.0 | 14.5 | 0.00 | 0.00 | 0.00 | 21 | 1023.7 |
| 20260510131412 | 19 | 88 | 3.2 | 11.3 | 0.00 | 0.00 | 0.00 | 20 | 1023.6 |
| 20260510130908 | 18 | 49 | 8.0 | 14.5 | 0.00 | 0.00 | 0.00 | 21 | 1023.7 |
| 20260510130406 | 17 | 42 | 1.6 | 3.2 | 0.00 | 0.00 | 0.00 | 22 | 1023.9 |
| 20260510125902 | 17 | 121 | 0.0 | 0.0 | 0.00 | 0.00 | 0.00 | 23 | 1023.4 |
| 20260510125358 | 17 | 54 | 0.0 | 0.0 | 0.00 | 0.00 | 0.00 | 22 | 1023.6 |
| 20260510124855 | 17 | 38 | 0.0 | 0.0 | 0.00 | 0.00 | 0.00 | 23 | 1023.7 |
| 20260510124352 | 17 | 25 | 0.0 | 0.0 | 0.00 | 0.00 | 0.00 | 23 | 1023.6 |
| 20260510123848 | 16 | 54 | 0.0 | 0.0 | 0.00 | 0.00 | 0.00 | 25 | 1023.4 |
| 20260510123343 | 16 | 66 | 0.0 | 0.0 | 0.00 | 0.00 | 0.00 | 24 | 1023.4 |
| 20260510122840 | 16 | 72 | 0.0 | 0.0 | 0.00 | 0.00 | 0.00 | 25 | 1023.1 |
| 20260510122336 | 16 | 85 | 0.0 | 0.0 | 0.00 | 0.00 | 0.00 | 24 | 1022.9 |
| 20260510121832 | 16 | 59 | 0.0 | 0.0 | 0.00 | 0.00 | 0.00 | 25 | 1022.9 |
| 20260510121330 | 16 | 124 | 0.0 | 1.6 | 0.00 | 0.00 | 0.00 | 23 | 1022.9 |
| 20260510120827 | 16 | 71 | 0.0 | 0.0 | 0.00 | 0.00 | 0.00 | 26 | 1023.3 |
| 20260510120324 | 16 | 73 | 0.0 | 0.0 | 0.00 | 0.00 | 0.00 | 25 | 1023.0 |
| 20260510115819 | 17 | 74 | 0.0 | 0.0 | 0.00 | 0.00 | 0.00 | 24 | 1022.9 |
| 20260510115317 | 17 | 116 | 0.0 | 0.0 | 0.00 | 0.00 | 0.00 | 23 | 1022.8 |
| 20260510114813 | 16 | 103 | 0.0 | 0.0 | 0.00 | 0.00 | 0.00 | 24 | 1022.5 |
| 20260510114310 | 15 | 101 | 0.0 | 0.0 | 0.00 | 0.00 | 0.00 | 25 | 1022.8 |
| 20260510113806 | 15 | 107 | 0.0 | 0.0 | 0.00 | 0.00 | 0.00 | 26 | 1022.8 |
| 20260510113303 | 15 | 96 | 0.0 | 0.0 | 0.00 | 0.00 | 0.00 | 26 | 1022.8 |
| 20260510112759 | 15 | 91 | 0.0 | 0.0 | 0.00 | 0.00 | 0.00 | 26 | 1022.8 |
| 20260510112256 | 15 | 88 | 0.0 | 0.0 | 0.00 | 0.00 | 0.00 | 27 | 1022.7 |
| 20260510111752 | 15 | 92 | 0.0 | 0.0 | 0.00 | 0.00 | 0.00 | 27 | 1022.7 |
| 20260510111249 | 15 | 100 | 0.0 | 0.0 | 0.00 | 0.00 | 0.00 | 26 | 1022.4 |
| 20260510110748 | 15 | 92 | 0.0 | 0.0 | 0.00 | 0.00 | 0.00 | 27 | 1022.2 |
| 20260510110247 | 15 | 91 | 0.0 | 0.0 | 0.00 | 0.00 | 0.00 | 26 | 1022.2 |
| 20260510105747 | 15 | 93 | 0.0 | 1.6 | 0.00 | 0.00 | 0.00 | 26 | 1022.3 |
| 20260510105241 | 15 | 86 | 0.0 | 0.0 | 0.00 | 0.00 | 0.00 | 26 | 1022.3 |
| 20260510104738 | 15 | 91 | 0.0 | 0.0 | 0.00 | 0.00 | 0.00 | 27 | 1022.2 |
| 20260510104236 | 15 | 98 | 0.0 | 0.0 | 0.00 | 0.00 | 0.00 | 26 | 1022.3 |
| 20260510103731 | 15 | 100 | 0.0 | 0.0 | 0.00 | 0.00 | 0.00 | 27 | 1022.2 |
| 20260510103229 | 15 | 99 | 0.0 | 0.0 | 0.00 | 0.00 | 0.00 | 27 | 1022.3 |
| 20260510102723 | 15 | 101 | 0.0 | 0.0 | 0.00 | 0.00 | 0.00 | 26 | 1022.1 |
| 20260510102219 | 15 | 73 | 0.0 | 0.0 | 0.00 | 0.00 | 0.00 | 27 | 1021.9 |
| 20260510101717 | 15 | 81 | 0.0 | 0.0 | 0.00 | 0.00 | 0.00 | 27 | 1021.9 |
| 20260510101215 | 15 | 76 | 0.0 | 0.0 | 0.00 | 0.00 | 0.00 | 27 | 1022.1 |
| 20260510100710 | 15 | 96 | 0.0 | 0.0 | 0.00 | 0.00 | 0.00 | 27 | 1021.8 |
| 20260510100209 | 15 | 88 | 0.0 | 0.0 | 0.00 | 0.00 | 0.00 | 27 | 1021.8 |
| 20260510095704 | 15 | 79 | 0.0 | 0.0 | 0.00 | 0.00 | 0.00 | 27 | 1021.9 |
| 20260510095159 | 15 | 90 | 0.0 | 0.0 | 0.00 | 0.00 | 0.00 | 26 | 1021.7 |
| 20260510094657 | 15 | 100 | 0.0 | 0.0 | 0.00 | 0.00 | 0.00 | 26 | 1021.7 |
| 20260510094154 | 15 | 92 | 0.0 | 0.0 | 0.00 | 0.00 | 0.00 | 26 | 1021.7 |
| 20260510093650 | 15 | 83 | 0.0 | 0.0 | 0.00 | 0.00 | 0.00 | 26 | 1021.7 |
| 20260510093148 | 15 | 80 | 0.0 | 0.0 | 0.00 | 0.00 | 0.00 | 26 | 1021.7 |
| 20260510092644 | 15 | 90 | 0.0 | 0.0 | 0.00 | 0.00 | 0.00 | 27 | 1021.6 |
| 20260510092139 | 15 | 80 | 0.0 | 0.0 | 0.00 | 0.00 | 0.00 | 26 | 1021.5 |
| 20260510091635 | 16 | 91 | 0.0 | 0.0 | 0.00 | 0.00 | 0.00 | 26 | 1021.5 |
| 20260510091131 | 16 | 97 | 0.0 | 0.0 | 0.00 | 0.00 | 0.00 | 26 | 1021.3 |
| 20260510090628 | 16 | 76 | 0.0 | 0.0 | 0.00 | 0.00 | 0.00 | 25 | 1021.3 |
| 20260510090124 | 17 | 84 | 0.0 | 0.0 | 0.00 | 0.00 | 0.00 | 24 | 1021.3 |
| 20260510085614 | 18 | 59 | 0.0 | 0.0 | 0.00 | 0.00 | 0.00 | 23 | 1021.3 |
| 20260510085110 | 18 | 54 | 0.0 | 0.0 | 0.00 | 0.00 | 0.00 | 22 | 1021.1 |
| 20260510084607 | 18 | 62 | 0.0 | 0.0 | 0.00 | 0.00 | 0.00 | 22 | 1021.1 |
| 20260510084103 | 17 | 61 | 0.0 | 0.0 | 0.00 | 0.00 | 0.00 | 23 | 1021.3 |
| 20260510083600 | 18 | 81 | 0.0 | 0.0 | 0.00 | 0.00 | 0.00 | 22 | 1021.0 |
| 20260510083056 | 18 | 87 | 0.0 | 0.0 | 0.00 | 0.00 | 0.00 | 22 | 1020.9 |
| 20260510082553 | 19 | 72 | 0.0 | 0.0 | 0.00 | 0.00 | 0.00 | 21 | 1020.6 |
| 20260510082048 | 18 | 58 | 0.0 | 0.0 | 0.00 | 0.00 | 0.00 | 21 | 1020.6 |
| 20260510081543 | 18 | 66 | 0.0 | 0.0 | 0.00 | 0.00 | 0.00 | 21 | 1020.6 |
| 20260510081039 | 18 | 70 | 0.0 | 0.0 | 0.00 | 0.00 | 0.00 | 22 | 1020.5 |
| 20260510080538 | 18 | 73 | 0.0 | 0.0 | 0.00 | 0.00 | 0.00 | 21 | 1020.6 |
| 20260510080036 | 18 | 75 | 0.0 | 0.0 | 0.00 | 0.00 | 0.00 | 21 | 1020.6 |
| 20260510075533 | 20 | 67 | 0.0 | 0.0 | 0.00 | 0.00 | 0.00 | 21 | 1020.6 |
| 20260510075030 | 21 | 31 | 0.0 | 0.0 | 0.00 | 0.00 | 0.00 | 19 | 1020.7 |
| 20260510074528 | 21 | 21 | 0.0 | 0.0 | 0.00 | 0.00 | 0.00 | 17 | 1020.6 |
| 20260510074023 | 22 | 323 | 0.0 | 0.0 | 0.00 | 0.00 | 0.00 | 17 | 1020.6 |
| 20260510073519 | 22 | 20 | 0.0 | 0.0 | 0.00 | 0.00 | 0.00 | 17 | 1020.7 |
| 20260510073016 | 22 | 48 | 0.0 | 0.0 | 0.00 | 0.00 | 0.00 | 17 | 1020.7 |
| 20260510072513 | 22 | 81 | 0.0 | 0.0 | 0.00 | 0.00 | 0.00 | 18 | 1020.9 |
| 20260510072008 | 23 | 30 | 0.0 | 0.0 | 0.00 | 0.00 | 0.00 | 16 | 1020.9 |
| 20260510071504 | 21 | 45 | 4.8 | 12.9 | 0.00 | 0.00 | 0.00 | 19 | 1021.0 |
| 20260510071003 | 20 | 93 | 0.0 | 1.6 | 0.00 | 0.00 | 0.00 | 21 | 1021.2 |
| 20260510070459 | 20 | 80 | 0.0 | 1.6 | 0.00 | 0.00 | 0.00 | 22 | 1021.3 |
| 20260510065955 | 20 | 76 | 0.0 | 0.0 | 0.00 | 0.00 | 0.00 | 21 | 1021.1 |
| 20260510065452 | 20 | 61 | 0.0 | 0.0 | 0.00 | 0.00 | 0.00 | 22 | 1020.9 |
| 20260510064948 | 20 | 94 | 0.0 | 0.0 | 0.00 | 0.00 | 0.00 | 21 | 1021.1 |
| 20260510064446 | 20 | 58 | 1.6 | 4.8 | 0.00 | 0.00 | 0.00 | 21 | 1021.3 |
| 20260510063942 | 19 | 38 | 0.0 | 0.0 | 0.00 | 0.00 | 0.00 | 21 | 1021.3 |
| 20260510063438 | 18 | 68 | 0.0 | 0.0 | 0.00 | 0.00 | 0.00 | 21 | 1021.2 |
| 20260510062936 | 18 | 72 | 0.0 | 0.0 | 0.00 | 0.00 | 0.00 | 21 | 1021.1 |
| 20260510062431 | 18 | 85 | 0.0 | 0.0 | 0.00 | 0.00 | 0.00 | 21 | 1021.3 |
| 20260510061926 | 18 | 74 | 0.0 | 0.0 | 0.00 | 0.00 | 0.00 | 21 | 1021.5 |
| 20260510061424 | 18 | 67 | 0.0 | 1.6 | 0.00 | 0.00 | 0.00 | 20 | 1021.2 |
| 20260510060920 | 18 | 60 | 0.0 | 0.0 | 0.00 | 0.00 | 0.00 | 20 | 1021.2 |
| 20260510060417 | 18 | 71 | 0.0 | 0.0 | 0.00 | 0.00 | 0.00 | 20 | 1021.5 |
| 20260510055913 | 18 | 73 | 0.0 | 0.0 | 0.00 | 0.00 | 0.00 | 20 | 1021.2 |
| 20260510055408 | 19 | 109 | 0.0 | 0.0 | 0.00 | 0.00 | 0.00 | 20 | 1021.3 |
| 20260510054901 | 19 | 114 | 0.0 | 1.6 | 0.00 | 0.00 | 0.00 | 19 | 1021.3 |
| 20260510054356 | 19 | 73 | 0.0 | 0.0 | 0.00 | 0.00 | 0.00 | 19 | 1021.1 |
| 20260510053851 | 20 | 86 | 0.0 | 0.0 | 0.00 | 0.00 | 0.00 | 18 | 1021.3 |
| 20260510053347 | 20 | 73 | 0.0 | 1.6 | 0.00 | 0.00 | 0.00 | 18 | 1021.0 |
| 20260510052844 | 20 | 86 | 0.0 | 0.0 | 0.00 | 0.00 | 0.00 | 17 | 1021.2 |
| 20260510052339 | 20 | 94 | 0.0 | 0.0 | 0.00 | 0.00 | 0.00 | 18 | 1021.3 |
| 20260510051836 | 20 | 88 | 0.0 | 0.0 | 0.00 | 0.00 | 0.00 | 17 | 1021.2 |
| 20260510051333 | 21 | 75 | 0.0 | 0.0 | 0.00 | 0.00 | 0.00 | 17 | 1021.1 |
| 20260510050830 | 20 | 86 | 0.0 | 0.0 | 0.00 | 0.00 | 0.00 | 17 | 1021.3 |
| 20260510050326 | 20 | 60 | 0.0 | 0.0 | 0.00 | 0.00 | 0.00 | 18 | 1021.3 |
| 20260510045823 | 20 | 70 | 0.0 | 0.0 | 0.00 | 0.00 | 0.00 | 18 | 1021.1 |
| 20260510045320 | 20 | 70 | 0.0 | 0.0 | 0.00 | 0.00 | 0.00 | 18 | 1021.3 |
| 20260510044817 | 20 | 66 | 0.0 | 0.0 | 0.00 | 0.00 | 0.00 | 18 | 1021.3 |
| 20260510044314 | 20 | 73 | 0.0 | 0.0 | 0.00 | 0.00 | 0.00 | 18 | 1021.5 |
| 20260510043810 | 20 | 80 | 0.0 | 0.0 | 0.00 | 0.00 | 0.00 | 18 | 1021.3 |
| 20260510043306 | 20 | 78 | 0.0 | 0.0 | 0.00 | 0.00 | 0.00 | 18 | 1021.3 |
| 20260510042804 | 20 | 68 | 0.0 | 0.0 | 0.00 | 0.00 | 0.00 | 18 | 1021.2 |
| 20260510042259 | 20 | 70 | 0.0 | 0.0 | 0.00 | 0.00 | 0.00 | 18 | 1021.2 |
| 20260510041756 | 20 | 84 | 0.0 | 0.0 | 0.00 | 0.00 | 0.00 | 18 | 1021.5 |
| 20260510041253 | 20 | 73 | 0.0 | 0.0 | 0.00 | 0.00 | 0.00 | 18 | 1021.2 |
| 20260510040751 | 21 | 57 | 0.0 | 0.0 | 0.00 | 0.00 | 0.00 | 18 | 1021.5 |
| 20260510040242 | 21 | 72 | 0.0 | 0.0 | 0.00 | 0.00 | 0.00 | 17 | 1021.5 |
| 20260510035737 | 20 | 56 | 0.0 | 1.6 | 0.00 | 0.00 | 0.00 | 17 | 1021.3 |
| 20260510035233 | 20 | 60 | 0.0 | 0.0 | 0.00 | 0.00 | 0.00 | 18 | 1021.2 |
| 20260510034729 | 19 | 65 | 0.0 | 0.0 | 0.00 | 0.00 | 0.00 | 19 | 1021.2 |
| 20260510034228 | 18 | 48 | 0.0 | 0.0 | 0.00 | 0.00 | 0.00 | 19 | 1021.0 |
| 20260510033723 | 18 | 51 | 0.0 | 0.0 | 0.00 | 0.00 | 0.00 | 20 | 1021.1 |
| 20260510033221 | 19 | 67 | 0.0 | 0.0 | 0.00 | 0.00 | 0.00 | 19 | 1021.0 |
| 20260510032717 | 20 | 70 | 0.0 | 0.0 | 0.00 | 0.00 | 0.00 | 19 | 1021.0 |
| 20260510032213 | 20 | 89 | 0.0 | 0.0 | 0.00 | 0.00 | 0.00 | 19 | 1020.7 |
| 20260510031708 | 20 | 77 | 0.0 | 0.0 | 0.00 | 0.00 | 0.00 | 19 | 1021.0 |
| 20260510031205 | 20 | 73 | 0.0 | 0.0 | 0.00 | 0.00 | 0.00 | 19 | 1020.7 |
| 20260510030704 | 20 | 69 | 0.0 | 0.0 | 0.00 | 0.00 | 0.00 | 19 | 1021.0 |
| 20260510030202 | 20 | 87 | 0.0 | 0.0 | 0.00 | 0.00 | 0.00 | 19 | 1021.0 |
| 20260510025659 | 20 | 83 | 0.0 | 0.0 | 0.00 | 0.00 | 0.00 | 19 | 1020.7 |
| 20260510025156 | 20 | 81 | 0.0 | 0.0 | 0.00 | 0.00 | 0.00 | 19 | 1020.7 |
| 20260510024653 | 20 | 80 | 0.0 | 0.0 | 0.00 | 0.00 | 0.00 | 19 | 1020.6 |
| 20260510024150 | 20 | 77 | 0.0 | 0.0 | 0.00 | 0.00 | 0.00 | 19 | 1020.6 |
| 20260510023645 | 20 | 88 | 0.0 | 0.0 | 0.00 | 0.00 | 0.00 | 19 | 1020.7 |
| 20260510023142 | 20 | 74 | 0.0 | 0.0 | 0.00 | 0.00 | 0.00 | 19 | 1020.4 |
| 20260510022637 | 20 | 78 | 0.0 | 0.0 | 0.00 | 0.00 | 0.00 | 19 | 1020.5 |
| 20260510022132 | 20 | 79 | 0.0 | 0.0 | 0.00 | 0.00 | 0.00 | 19 | 1020.4 |
| 20260510021627 | 20 | 86 | 0.0 | 0.0 | 0.00 | 0.00 | 0.00 | 19 | 1020.3 |
| 20260510021126 | 20 | 92 | 0.0 | 0.0 | 0.00 | 0.00 | 0.00 | 19 | 1020.4 |
| 20260510020620 | 21 | 171 | 0.0 | 0.0 | 0.00 | 0.00 | 0.00 | 18 | 1020.1 |
| 20260510020115 | 22 | 202 | 0.0 | 0.0 | 0.00 | 0.00 | 0.00 | 17 | 1020.3 |
| 20260510015611 | 23 | 214 | 0.0 | 0.0 | 0.00 | 0.00 | 0.00 | 16 | 1020.1 |
| 20260510015108 | 23 | 218 | 0.0 | 0.0 | 0.00 | 0.00 | 0.00 | 15 | 1020.4 |
| 20260510014603 | 23 | 214 | 0.0 | 0.0 | 0.00 | 0.00 | 0.00 | 16 | 1020.0 |
| 20260510014101 | 23 | 222 | 0.0 | 0.0 | 0.00 | 0.00 | 0.00 | 15 | 1020.0 |
| 20260510013555 | 24 | 249 | 0.0 | 0.0 | 0.00 | 0.00 | 0.00 | 15 | 1020.0 |
| 20260510013051 | 24 | 245 | 0.0 | 0.0 | 0.00 | 0.00 | 0.00 | 15 | 1019.8 |
| 20260510012545 | 25 | 230 | 0.0 | 0.0 | 0.00 | 0.00 | 0.00 | 15 | 1019.9 |
| 20260510012042 | 25 | 242 | 0.0 | 0.0 | 0.00 | 0.00 | 0.00 | 14 | 1019.9 |
| 20260510011541 | 25 | 247 | 0.0 | 0.0 | 0.00 | 0.00 | 0.00 | 14 | 1019.7 |
| 20260510011037 | 25 | 236 | 0.0 | 0.0 | 0.00 | 0.00 | 0.00 | 13 | 1019.8 |
| 20260510010534 | 26 | 230 | 0.0 | 0.0 | 0.00 | 0.00 | 0.00 | 14 | 1019.9 |
| 20260510010032 | 26 | 272 | 0.0 | 0.0 | 0.00 | 0.00 | 0.00 | 13 | 1019.9 |
| 20260510005527 | 26 | 259 | 0.0 | 1.6 | 0.00 | 0.00 | 0.00 | 13 | 1019.9 |
| 20260510005025 | 27 | 244 | 4.8 | 12.9 | 0.00 | 0.00 | 0.00 | 13 | 1020.0 |
| 20260510004522 | 27 | 224 | 0.0 | 0.0 | 0.00 | 0.00 | 0.00 | 13 | 1019.9 |
| 20260510004021 | 27 | 260 | 0.0 | 0.0 | 0.00 | 0.00 | 0.00 | 13 | 1019.9 |
| 20260510003516 | 27 | 224 | 0.0 | 3.2 | 0.00 | 0.00 | 0.00 | 13 | 1019.8 |
| 20260510003012 | 27 | 270 | 1.6 | 4.8 | 0.00 | 0.00 | 0.00 | 13 | 1019.8 |
| 20260510002508 | 27 | 283 | 3.2 | 8.0 | 0.00 | 0.00 | 0.00 | 12 | 1019.9 |
| 20260510002005 | 27 | 266 | 0.0 | 0.0 | 0.00 | 0.00 | 0.00 | 12 | 1020.0 |
| 20260510001502 | 28 | 318 | 8.0 | 11.3 | 0.00 | 0.00 | 0.00 | 12 | 1020.1 |
| 20260510001000 | 28 | 271 | 0.0 | 0.0 | 0.00 | 0.00 | 0.00 | 11 | 1019.9 |
| 20260510000455 | 28 | 218 | 0.0 | 0.0 | 0.00 | 0.00 | 0.00 | 12 | 1019.9 |
| 20260509235952 | 27 | 276 | 0.0 | 0.0 | 0.00 | 0.00 | 0.00 | 12 | 1019.9 |
| 20260509235449 | 28 | 237 | 0.0 | 0.0 | 0.00 | 0.00 | 0.00 | 12 | 1020.1 |
| 20260509234945 | 28 | 260 | 4.8 | 11.3 | 0.00 | 0.00 | 0.00 | 12 | 1020.1 |
| 20260509234442 | 27 | 300 | 0.0 | 1.6 | 0.00 | 0.00 | 0.00 | 12 | 1020.3 |
| 20260509233940 | 27 | 276 | 0.0 | 0.0 | 0.00 | 0.00 | 0.00 | 12 | 1020.1 |
| 20260509233437 | 28 | 277 | 0.0 | 0.0 | 0.00 | 0.00 | 0.00 | 12 | 1020.1 |
| 20260509232933 | 27 | 299 | 0.0 | 1.6 | 0.00 | 0.00 | 0.00 | 12 | 1020.0 |
| 20260509232431 | 27 | 260 | 9.7 | 12.9 | 0.00 | 0.00 | 0.00 | 12 | 1020.1 |
| 20260509231926 | 28 | 238 | 1.6 | 3.2 | 0.00 | 0.00 | 0.00 | 11 | 1020.1 |
| 20260509231424 | 28 | 294 | 0.0 | 0.0 | 0.00 | 0.00 | 0.00 | 11 | 1020.4 |
| 20260509230922 | 28 | 242 | 3.2 | 4.8 | 0.00 | 0.00 | 0.00 | 11 | 1020.3 |
| 20260509230418 | 29 | 253 | 0.0 | 0.0 | 0.00 | 0.00 | 0.00 | 11 | 1020.3 |
| 20260509225914 | 28 | 12 | 0.0 | 0.0 | 0.00 | 0.00 | 0.00 | 11 | 1020.5 |
| 20260509225411 | 28 | 238 | 0.0 | 0.0 | 0.00 | 0.00 | 0.00 | 13 | 1020.4 |
| 20260509224907 | 28 | 183 | 0.0 | 0.0 | 0.00 | 0.00 | 0.00 | 12 | 1020.1 |
| 20260509224402 | 28 | 213 | 0.0 | 0.0 | 0.00 | 0.00 | 0.00 | 12 | 1020.4 |
| 20260509223900 | 27 | 243 | 0.0 | 0.0 | 0.00 | 0.00 | 0.00 | 13 | 1020.5 |
| 20260509223351 | 27 | 263 | 1.6 | 4.8 | 0.00 | 0.00 | 0.00 | 12 | 1020.6 |
| 20260509222848 | 28 | 282 | 6.4 | 9.7 | 0.00 | 0.00 | 0.00 | 12 | 1020.7 |
| 20260509222343 | 28 | 244 | 0.0 | 0.0 | 0.00 | 0.00 | 0.00 | 12 | 1020.7 |
| 20260509221839 | 27 | 290 | 1.6 | 4.8 | 0.00 | 0.00 | 0.00 | 12 | 1020.6 |
| 20260509221336 | 27 | 236 | 11.3 | 14.5 | 0.00 | 0.00 | 0.00 | 12 | 1020.9 |
| 20260509220831 | 28 | 243 | 0.0 | 1.6 | 0.00 | 0.00 | 0.00 | 12 | 1021.0 |
| 20260509220328 | 28 | 271 | 0.0 | 0.0 | 0.00 | 0.00 | 0.00 | 12 | 1021.1 |
| 20260509215823 | 27 | 251 | 3.2 | 11.3 | 0.00 | 0.00 | 0.00 | 13 | 1020.9 |
| 20260509215320 | 28 | 219 | 0.0 | 0.0 | 0.00 | 0.00 | 0.00 | 12 | 1021.0 |
| 20260509214817 | 27 | 312 | 0.0 | 0.0 | 0.00 | 0.00 | 0.00 | 12 | 1021.3 |
| 20260509214314 | 28 | 258 | 4.8 | 9.7 | 0.00 | 0.00 | 0.00 | 12 | 1021.1 |
| 20260509213811 | 27 | 201 | 0.0 | 0.0 | 0.00 | 0.00 | 0.00 | 13 | 1021.3 |
| 20260509213307 | 27 | 252 | 0.0 | 0.0 | 0.00 | 0.00 | 0.00 | 12 | 1021.6 |
| 20260509212805 | 27 | 208 | 0.0 | 0.0 | 0.00 | 0.00 | 0.00 | 13 | 1021.6 |
| 20260509212305 | 27 | 281 | 1.6 | 4.8 | 0.00 | 0.00 | 0.00 | 12 | 1021.7 |
| 20260509211757 | 27 | 236 | 0.0 | 0.0 | 0.00 | 0.00 | 0.00 | 12 | 1021.8 |
| 20260509211254 | 28 | 255 | 0.0 | 0.0 | 0.00 | 0.00 | 0.00 | 13 | 1021.9 |
| 20260509210750 | 27 | 261 | 1.6 | 4.8 | 0.00 | 0.00 | 0.00 | 12 | 1021.9 |
| 20260509210248 | 27 | 261 | 0.0 | 3.2 | 0.00 | 0.00 | 0.00 | 12 | 1022.2 |
| 20260509205747 | 27 | 266 | 3.2 | 8.0 | 0.00 | 0.00 | 0.00 | 13 | 1022.3 |
| 20260509205242 | 27 | 302 | 8.0 | 16.1 | 0.00 | 0.00 | 0.00 | 13 | 1022.2 |
| 20260509204738 | 27 | 297 | 0.0 | 0.0 | 0.00 | 0.00 | 0.00 | 12 | 1022.2 |